Akiak, Alaska
Current Conditions -  °F | °C
As of 12:56 AM on Saturday 25 Oct 2014 (Local Time) from PFKW Reporting Station
Clear Clear  
Wind Chill: -8°   Ceiling: Unl
Heat Index: -2°   Visibility: 10mi
Dew Point: -5°   Wind: 12mph
Humidity: 81%   Direction: 180°S
Pressure: 29.95"   Gusts: NA
Location:  60.92°N, 161.23°W
Report Text: PFKW 250856Z AUTO 18010KT 10SM CLR M02/M05 A2995 RMK AO2 SLP143 T10221050 400171089 58007 FZRANO
Loading
Personal Weather Stations






























Interactive Weather Map
Tropical Storm Tracking
New forecast layout! Learn more

10-Day Weather Forecast

Advertisements
Track Severe Weather on mobile